Time;durP1;ratioP1;P1;durP2;ratioP2;P2;SDS_P1;SDS_P2;PMS_P1;PMS_P2;Temp;Humidity;BMP_temperature;BMP_pressure;BME280_temperature;BME280_humidity;BME280_pressure;Samples;Min_cycle;Max_cycle;Signal;HPM_P1;HPM_P2
2022/07/24 00:00:39;;;;;;;;;;;;;;;22.69;66.04;100909.66;5106274;28;20018;-83
2022/07/24 00:03:07;;;;;;;;;;;;;;;22.66;66.31;100910.91;5106517;28;20001;-86
2022/07/24 00:05:37;;;;;;;;;;;;;;;22.66;66.30;100905.44;5111523;28;19916;-83
2022/07/24 00:08:03;;;;;;;;;;;;;;;22.71;66.79;100902.00;5108060;28;19920;-85
2022/07/24 00:10:31;;;;;;;;;;;;;;;22.70;66.99;100906.66;5111221;28;19912;-85
2022/07/24 00:12:57;;;;;;;;;;;;;;;22.67;67.18;100907.13;5111189;28;19924;-86
2022/07/24 00:15:22;;;;;;;;;;;;;;;22.65;67.09;100897.47;5096230;28;19920;-85
2022/07/24 00:17:55;;;;;;;;;;;;;;;22.64;67.20;100899.38;5101252;28;20293;-84
2022/07/24 00:20:25;;;;;;;;;;;;;;;22.60;67.38;100900.91;5105472;28;19942;-84
2022/07/24 00:22:53;;;;;;;;;;;;;;;22.61;67.43;100904.50;5112351;28;20481;-85
2022/07/24 00:25:20;;;;;;;;;;;;;;;22.57;67.56;100897.81;5098341;28;19923;-84
2022/07/24 00:27:45;;;;;;;;;;;;;;;22.51;67.95;100903.16;5111333;28;19916;-85
2022/07/24 00:30:12;;;;;;;;;;;;;;;22.43;68.31;100898.03;5098808;28;19922;-83
2022/07/24 00:32:39;;;;;;;;;;;;;;;22.46;68.27;100896.72;5112180;28;20010;-84
2022/07/24 00:35:04;;;;;;;;;;;;;;;22.41;68.65;100891.09;5107973;28;20379;-85
2022/07/24 00:37:30;;;;;;;;;;;;;;;22.45;68.31;100900.50;5096308;28;19954;-84
2022/07/24 00:39:55;;;;;;;;;;;;;;;22.49;68.34;100888.84;5111535;28;19969;-85
2022/07/24 00:42:20;;;;;;;;;;;;;;;22.43;68.44;100889.81;5079662;28;20389;-85
2022/07/24 00:44:45;;;;;;;;;;;;;;;22.41;68.87;100880.16;5089360;28;19981;-83
2022/07/24 00:47:13;;;;;;;;;;;;;;;22.39;68.57;100883.13;5109132;28;20107;-84
2022/07/24 00:49:39;;;;;;;;;;;;;;;22.44;68.45;100883.25;5102453;27;20014;-84
2022/07/24 00:52:06;;;;;;;;;;;;;;;22.37;68.67;100874.28;5106897;28;20035;-84
2022/07/24 00:54:34;;;;;;;;;;;;;;;22.39;68.57;100876.81;5107121;28;19912;-83
2022/07/24 00:56:59;;;;;;;;;;;;;;;22.30;68.74;100874.38;5104007;28;19973;-84
2022/07/24 00:59:25;;;;;;;;;;;;;;;22.18;69.27;100864.44;5106252;28;19916;-84
2022/07/24 01:01:50;;;;;;;;;;;;;;;22.22;68.97;100861.03;5104496;28;19984;-82
2022/07/24 01:04:16;;;;;;;;;;;;;;;22.31;68.49;100861.53;5110333;28;20010;-84
2022/07/24 01:06:41;;;;;;;;;;;;;;;22.33;68.44;100856.66;5107165;28;19928;-84
2022/07/24 01:09:07;;;;;;;;;;;;;;;22.29;68.26;100858.22;5103688;28;19922;-84
2022/07/24 01:11:33;;;;;;;;;;;;;;;22.31;68.15;100853.31;5098497;28;19965;-81
2022/07/24 01:13:59;;;;;;;;;;;;;;;22.26;68.15;100854.00;5103941;28;19920;-83
2022/07/24 01:16:24;;;;;;;;;;;;;;;22.25;68.27;100855.09;5104447;28;19916;-83
2022/07/24 01:18:51;;;;;;;;;;;;;;;22.22;68.21;100843.75;5099586;27;19915;-83
2022/07/24 01:21:16;;;;;;;;;;;;;;;22.17;68.56;100841.69;5107701;28;20387;-84
2022/07/24 01:23:43;;;;;;;;;;;;;;;22.13;68.62;100841.34;5084872;28;19916;-84
2022/07/24 01:26:08;;;;;;;;;;;;;;;22.15;68.49;100846.59;5101388;28;19959;-83
2022/07/24 01:28:34;;;;;;;;;;;;;;;22.13;68.52;100841.34;5087629;28;20402;-82
2022/07/24 01:30:59;;;;;;;;;;;;;;;22.14;68.87;100844.91;5107944;28;20388;-82
2022/07/24 01:33:26;;;;;;;;;;;;;;;22.13;68.70;100838.59;5107140;28;19923;-83
2022/07/24 01:35:52;;;;;;;;;;;;;;;22.12;68.91;100838.81;5107784;28;19912;-83
2022/07/24 01:38:18;;;;;;;;;;;;;;;22.08;69.02;100841.19;5096567;28;19959;-84
2022/07/24 01:40:43;;;;;;;;;;;;;;;22.11;69.02;100838.00;5103231;28;19963;-83
2022/07/24 01:43:08;;;;;;;;;;;;;;;22.06;69.30;100840.59;5098976;28;19923;-83
2022/07/24 01:45:35;;;;;;;;;;;;;;;22.03;69.29;100837.47;5103051;28;20436;-83
2022/07/24 01:48:01;;;;;;;;;;;;;;;22.05;69.18;100829.88;5109118;28;20017;-83
2022/07/24 01:50:27;;;;;;;;;;;;;;;21.99;69.31;100834.38;5098683;28;19944;-83
2022/07/24 01:52:55;;;;;;;;;;;;;;;22.04;69.36;100825.47;5105395;28;19950;-83
2022/07/24 01:55:22;;;;;;;;;;;;;;;22.03;69.47;100824.66;5098947;28;19963;-90
2022/07/24 01:57:48;;;;;;;;;;;;;;;22.02;69.57;100816.66;5106441;28;19928;-85
2022/07/24 02:00:13;;;;;;;;;;;;;;;21.96;69.62;100817.56;5107192;28;19916;-83
2022/07/24 02:02:39;;;;;;;;;;;;;;;21.98;69.42;100816.28;5085632;28;20015;-84
2022/07/24 02:05:06;;;;;;;;;;;;;;;21.97;69.30;100824.72;5106730;28;19919;-85
2022/07/24 02:07:31;;;;;;;;;;;;;;;21.95;69.15;100822.22;5102029;28;19916;-81
2022/07/24 02:09:56;;;;;;;;;;;;;;;21.93;68.83;100822.44;5085711;28;19964;-84
2022/07/24 02:12:25;;;;;;;;;;;;;;;21.92;68.88;100812.56;5108904;28;19923;-85
2022/07/24 02:14:51;;;;;;;;;;;;;;;21.89;68.93;100818.53;5113233;28;19915;-84
2022/07/24 02:17:16;;;;;;;;;;;;;;;21.90;68.97;100820.19;5093496;28;20034;-84
2022/07/24 02:19:41;;;;;;;;;;;;;;;21.90;68.95;100819.34;5093903;28;19924;-83
2022/07/24 02:22:07;;;;;;;;;;;;;;;21.85;68.83;100811.00;5111246;28;19977;-83
2022/07/24 02:24:32;;;;;;;;;;;;;;;21.77;69.04;100820.34;5113332;28;19912;-83
2022/07/24 02:27:02;;;;;;;;;;;;;;;21.82;68.83;100812.31;5110238;28;19923;-83
2022/07/24 02:29:27;;;;;;;;;;;;;;;21.81;68.71;100818.00;5106337;28;19934;-85
2022/07/24 02:31:52;;;;;;;;;;;;;;;21.78;68.59;100816.56;5107648;28;19907;-84
2022/07/24 02:34:18;;;;;;;;;;;;;;;21.80;68.39;100814.44;5095598;28;19916;-82
2022/07/24 02:36:43;;;;;;;;;;;;;;;21.78;68.31;100815.75;5111766;28;19978;-85
2022/07/24 02:39:09;;;;;;;;;;;;;;;21.71;68.62;100819.38;5108327;28;19912;-83
2022/07/24 02:41:34;;;;;;;;;;;;;;;21.58;69.94;100819.56;5107037;28;20352;-84
2022/07/24 02:43:59;;;;;;;;;;;;;;;21.56;70.67;100818.94;5094043;28;19916;-84
2022/07/24 02:46:25;;;;;;;;;;;;;;;21.53;71.60;100818.56;5112137;28;19908;-84
2022/07/24 02:48:50;;;;;;;;;;;;;;;21.50;71.85;100819.88;5113140;28;19927;-83
2022/07/24 02:51:15;;;;;;;;;;;;;;;21.61;71.39;100815.50;5095508;28;20156;-85
2022/07/24 02:53:41;;;;;;;;;;;;;;;21.64;71.24;100820.53;5113224;28;19949;-83
2022/07/24 02:56:06;;;;;;;;;;;;;;;21.60;71.14;100808.38;5107028;28;20375;-89
2022/07/24 02:58:32;;;;;;;;;;;;;;;21.62;70.92;100809.81;5110977;28;20002;-85
2022/07/24 03:00:57;;;;;;;;;;;;;;;21.54;71.08;100807.41;5114431;28;19912;-86
2022/07/24 03:03:22;;;;;;;;;;;;;;;21.68;69.88;100813.53;5110876;28;19922;-85
2022/07/24 03:05:48;;;;;;;;;;;;;;;21.71;68.65;100813.91;5112995;28;19912;-84
2022/07/24 03:08:13;;;;;;;;;;;;;;;21.68;68.10;100808.91;5108729;28;19916;-85
2022/07/24 03:10:38;;;;;;;;;;;;;;;21.72;66.28;100812.00;5100446;28;19922;-85
2022/07/24 03:13:05;;;;;;;;;;;;;;;21.71;65.45;100810.34;5094480;28;19919;-84
2022/07/24 03:15:30;;;;;;;;;;;;;;;21.70;64.18;100808.66;5105876;28;20007;-84
2022/07/24 03:17:56;;;;;;;;;;;;;;;21.70;63.38;100812.25;5124387;27;20003;-83
2022/07/24 03:20:22;;;;;;;;;;;;;;;21.73;62.08;100807.38;5098267;27;19919;-87
2022/07/24 03:22:48;;;;;;;;;;;;;;;21.73;62.21;100802.75;5089900;27;20359;-83
2022/07/24 03:25:13;;;;;;;;;;;;;;;21.75;62.19;100800.63;5098733;27;19915;-84
2022/07/24 03:27:38;;;;;;;;;;;;;;;21.79;62.16;100801.81;5106175;27;20234;-84
2022/07/24 03:30:06;;;;;;;;;;;;;;;21.85;61.58;100800.06;5108691;27;19923;-83
2022/07/24 03:32:31;;;;;;;;;;;;;;;21.84;60.56;100790.16;5142410;27;19952;-83
2022/07/24 03:34:56;;;;;;;;;;;;;;;21.90;60.02;100789.25;5134228;27;19915;-83
2022/07/24 03:37:23;;;;;;;;;;;;;;;21.90;59.88;100797.44;5137509;27;19919;-87
2022/07/24 03:39:48;;;;;;;;;;;;;;;21.90;59.37;100797.44;5127284;27;19915;-83
2022/07/24 03:42:17;;;;;;;;;;;;;;;21.99;59.20;100798.78;5134551;27;19935;-82
2022/07/24 03:44:45;;;;;;;;;;;;;;;22.06;58.98;100802.28;5111188;27;19923;-82
2022/07/24 03:47:10;;;;;;;;;;;;;;;22.13;58.83;100803.00;5113662;27;20371;-83
2022/07/24 03:49:36;;;;;;;;;;;;;;;22.21;58.80;100801.03;5105947;28;19926;-84
2022/07/24 03:52:03;;;;;;;;;;;;;;;22.27;58.62;100798.19;5119456;27;20282;-84
2022/07/24 03:54:28;;;;;;;;;;;;;;;22.34;58.31;100800.81;5127291;27;20336;-84
2022/07/24 03:56:54;;;;;;;;;;;;;;;22.41;57.96;100801.53;5132190;27;20007;-84
2022/07/24 03:59:19;;;;;;;;;;;;;;;22.48;58.00;100804.19;5103657;27;19986;-84
2022/07/24 04:01:44;;;;;;;;;;;;;;;22.54;58.22;100809.53;5131401;27;20022;-85
2022/07/24 04:04:10;;;;;;;;;;;;;;;22.62;58.11;100805.63;5097721;27;19991;-83
2022/07/24 04:06:35;;;;;;;;;;;;;;;22.69;57.75;100800.84;5114347;27;19961;-84
2022/07/24 04:09:00;;;;;;;;;;;;;;;22.77;57.74;100805.13;5133529;27;19922;-85
2022/07/24 04:11:29;;;;;;;;;;;;;;;22.86;57.14;100811.94;5123799;27;19972;-85
2022/07/24 04:13:55;;;;;;;;;;;;;;;22.93;56.71;100809.91;5130967;27;19922;-86
2022/07/24 04:16:22;;;;;;;;;;;;;;;22.99;56.60;100801.81;5097586;27;19972;-84
2022/07/24 04:18:50;;;;;;;;;;;;;;;23.10;57.11;100804.53;5114229;27;19958;-85
2022/07/24 04:21:16;;;;;;;;;;;;;;;23.19;57.70;100810.50;5128922;27;19919;-85
2022/07/24 04:23:41;;;;;;;;;;;;;;;23.29;57.80;100804.41;5105855;27;19980;-84
2022/07/24 04:26:07;;;;;;;;;;;;;;;23.39;58.70;100802.72;5130864;27;19916;-84
2022/07/24 04:28:32;;;;;;;;;;;;;;;23.51;59.65;100808.16;5126648;27;19988;-83
2022/07/24 04:30:57;;;;;;;;;;;;;;;23.65;61.71;100808.72;5125200;27;20336;-85
2022/07/24 04:33:23;;;;;;;;;;;;;;;23.79;62.93;100814.78;5127182;27;19927;-87
2022/07/24 04:35:48;;;;;;;;;;;;;;;23.93;65.23;100812.59;5112996;27;20016;-86
2022/07/24 04:38:15;;;;;;;;;;;;;;;24.07;65.35;100807.59;5109159;27;20010;-84
2022/07/24 04:40:41;;;;;;;;;;;;;;;24.26;66.35;100803.56;5092206;27;19915;-84
2022/07/24 04:43:06;;;;;;;;;;;;;;;24.43;67.80;100804.38;5132854;27;19919;-84
2022/07/24 04:45:33;;;;;;;;;;;;;;;24.51;67.83;100810.59;5113946;27;19912;-84
2022/07/24 04:48:00;;;;;;;;;;;;;;;24.71;68.05;100808.16;5130330;27;19942;-84
2022/07/24 04:50:26;;;;;;;;;;;;;;;24.76;67.79;100807.41;5097944;27;19965;-84
2022/07/24 04:52:52;;;;;;;;;;;;;;;24.99;67.37;100811.88;5107498;27;19961;-85
2022/07/24 04:55:17;;;;;;;;;;;;;;;25.25;66.87;100819.41;5103637;28;20261;-83
2022/07/24 04:57:43;;;;;;;;;;;;;;;25.23;67.28;100813.34;5108941;27;20302;-85
2022/07/24 05:00:11;;;;;;;;;;;;;;;25.52;66.32;100809.56;5109231;27;19997;-85
2022/07/24 05:02:36;;;;;;;;;;;;;;;25.64;64.33;100808.34;5109850;27;19916;-84
2022/07/24 05:05:01;;;;;;;;;;;;;;;25.76;63.66;100813.72;5110523;27;19916;-84
2022/07/24 05:07:29;;;;;;;;;;;;;;;25.86;63.16;100822.09;5127364;27;19929;-85
2022/07/24 05:09:54;;;;;;;;;;;;;;;26.08;63.32;100813.81;5115803;27;20029;-85
2022/07/24 05:12:20;;;;;;;;;;;;;;;26.07;62.84;100817.63;5110278;27;20406;-85
2022/07/24 05:14:45;;;;;;;;;;;;;;;26.19;62.63;100817.47;5096426;27;19916;-82
2022/07/24 05:17:13;;;;;;;;;;;;;;;26.27;63.33;100810.66;5113358;27;20399;-84
2022/07/24 05:19:38;;;;;;;;;;;;;;;26.59;62.05;100818.13;5105931;28;19923;-85
2022/07/24 05:22:05;;;;;;;;;;;;;;;26.54;63.32;100810.63;5107367;28;19920;-84
2022/07/24 05:24:30;;;;;;;;;;;;;;;26.67;62.61;100815.72;5106677;28;19923;-85
2022/07/24 05:26:58;;;;;;;;;;;;;;;26.85;62.17;100817.19;5110059;28;20304;-87
2022/07/24 05:29:23;;;;;;;;;;;;;;;26.82;61.02;100811.41;5100941;28;19955;-82
2022/07/24 05:31:49;;;;;;;;;;;;;;;26.89;61.17;100814.75;5106863;28;19941;-85
2022/07/24 05:34:14;;;;;;;;;;;;;;;26.92;59.94;100812.28;5104482;28;19920;-84
2022/07/24 05:36:39;;;;;;;;;;;;;;;27.01;59.68;100815.38;5101604;28;19927;-83
2022/07/24 05:39:05;;;;;;;;;;;;;;;27.06;58.65;100818.16;5110123;28;20384;-83
2022/07/24 05:41:30;;;;;;;;;;;;;;;27.02;56.54;100817.06;5092704;28;19916;-82
2022/07/24 05:43:55;;;;;;;;;;;;;;;27.01;57.28;100820.06;5109286;28;19911;-85
2022/07/24 05:46:21;;;;;;;;;;;;;;;27.22;55.21;100815.53;5094105;28;19912;-83
2022/07/24 05:48:46;;;;;;;;;;;;;;;27.24;56.13;100814.16;5105582;28;19924;-83
2022/07/24 05:51:11;;;;;;;;;;;;;;;27.58;52.80;100822.00;5109044;28;19947;-86
2022/07/24 05:53:37;;;;;;;;;;;;;;;27.68;53.41;100807.44;5102106;28;19912;-84
2022/07/24 05:56:03;;;;;;;;;;;;;;;27.67;53.74;100814.03;5091794;28;20010;-82
2022/07/24 05:58:28;;;;;;;;;;;;;;;27.79;52.87;100814.63;5091718;28;19912;-83
2022/07/24 06:00:53;;;;;;;;;;;;;;;27.91;53.22;100812.50;5111151;28;20458;-82
2022/07/24 06:03:19;;;;;;;;;;;;;;;28.31;52.15;100815.59;5108866;28;19918;-82
2022/07/24 06:05:51;;;;;;;;;;;;;;;28.28;50.33;100819.72;5110325;28;20014;-79
2022/07/24 06:08:16;;;;;;;;;;;;;;;28.11;49.69;100816.38;5112543;28;19960;-81
2022/07/24 06:10:43;;;;;;;;;;;;;;;28.25;50.39;100806.44;5110672;28;20357;-80
2022/07/24 06:13:11;;;;;;;;;;;;;;;28.31;49.11;100812.81;5110439;28;19931;-80
2022/07/24 06:15:36;;;;;;;;;;;;;;;28.34;50.05;100813.09;5106845;28;19963;-83
2022/07/24 06:18:02;;;;;;;;;;;;;;;28.66;49.73;100806.47;5101519;28;20452;-81
2022/07/24 06:20:29;;;;;;;;;;;;;;;29.09;48.86;100804.19;5098425;28;20342;-82
2022/07/24 06:22:54;;;;;;;;;;;;;;;29.38;47.31;100803.53;5097301;28;19992;-80
2022/07/24 06:25:20;;;;;;;;;;;;;;;29.43;44.93;100797.97;5107655;28;20018;-80
2022/07/24 06:27:46;;;;;;;;;;;;;;;29.52;44.10;100798.22;5103124;28;19966;-81
2022/07/24 06:30:16;;;;;;;;;;;;;;;29.62;42.66;100799.00;5104157;28;19976;-80
2022/07/24 06:32:41;;;;;;;;;;;;;;;29.44;45.24;100810.72;5099755;28;19923;-81
2022/07/24 06:35:08;;;;;;;;;;;;;;;29.72;46.44;100800.91;5098268;28;19927;-79
2022/07/24 06:37:33;;;;;;;;;;;;;;;30.03;46.49;100798.75;5103070;28;19920;-81
2022/07/24 06:40:00;;;;;;;;;;;;;;;30.01;46.02;100803.75;5107943;28;20397;-81
2022/07/24 06:42:26;;;;;;;;;;;;;;;30.04;46.56;100800.44;5105095;28;19916;-80
2022/07/24 06:44:51;;;;;;;;;;;;;;;30.17;46.73;100801.72;5106780;28;19916;-84
2022/07/24 06:47:17;;;;;;;;;;;;;;;30.27;45.62;100792.50;5105890;28;19920;-85
2022/07/24 06:49:42;;;;;;;;;;;;;;;30.56;45.48;100797.28;5103519;28;20015;-80
2022/07/24 06:52:08;;;;;;;;;;;;;;;30.63;45.11;100790.25;5104752;28;19938;-82
2022/07/24 06:54:33;;;;;;;;;;;;;;;30.73;45.85;100796.81;5109663;28;19912;-81
2022/07/24 06:56:59;;;;;;;;;;;;;;;30.87;45.63;100793.09;5100910;28;19945;-82
2022/07/24 06:59:26;;;;;;;;;;;;;;;31.11;45.45;100787.53;5103747;28;20363;-81
2022/07/24 07:01:57;;;;;;;;;;;;;;;31.47;43.48;100784.34;5113154;28;20043;-83
2022/07/24 07:04:30;;;;;;;;;;;;;;;31.47;43.49;100789.09;5110251;28;19916;-81
2022/07/24 07:06:55;;;;;;;;;;;;;;;31.37;44.07;100780.84;5104191;28;19924;-79
2022/07/24 07:09:21;;;;;;;;;;;;;;;31.48;42.49;100768.50;5092590;28;19916;-90
2022/07/24 07:11:47;;;;;;;;;;;;;;;31.33;42.02;100778.69;5112608;28;19911;-80
2022/07/24 07:14:15;;;;;;;;;;;;;;;31.35;42.67;100778.34;5107369;28;19941;-81
2022/07/24 07:16:43;;;;;;;;;;;;;;;31.51;42.78;100784.56;5103178;28;20031;-83
2022/07/24 07:19:09;;;;;;;;;;;;;;;31.06;43.12;100776.50;5110861;28;19915;-81
2022/07/24 07:24:42;;;;;;;;;;;;;;;31.31;42.77;100774.53;5128527;28;20466;-84
2022/07/24 07:27:10;;;;;;;;;;;;;;;31.38;41.19;100763.06;5132994;28;19966;-87
2022/07/24 07:29:40;;;;;;;;;;;;;;;31.43;41.63;100771.38;5124272;27;19911;-87
2022/07/24 07:32:05;;;;;;;;;;;;;;;31.70;40.33;100765.97;5110411;27;19911;-85
2022/07/24 07:34:31;;;;;;;;;;;;;;;31.82;40.37;100770.25;5119215;27;20332;-85
2022/07/24 07:40:02;;;;;;;;;;;;;;;32.17;38.76;100775.28;5134908;27;19973;-85
2022/07/24 07:42:30;;;;;;;;;;;;;;;32.22;39.83;100767.97;5101824;27;20467;-83
2022/07/24 07:44:56;;;;;;;;;;;;;;;32.26;40.25;100767.06;5108921;28;19926;-84
2022/07/24 07:47:22;;;;;;;;;;;;;;;32.00;39.16;100763.88;5111140;27;19919;-81
2022/07/24 07:49:47;;;;;;;;;;;;;;;32.29;39.69;100765.66;5098717;27;19951;-82
2022/07/24 07:52:14;;;;;;;;;;;;;;;32.27;39.20;100759.56;5106032;27;19915;-83
2022/07/24 07:54:40;;;;;;;;;;;;;;;32.17;40.72;100763.31;5101460;27;19922;-80
2022/07/24 07:57:05;;;;;;;;;;;;;;;32.22;40.87;100765.19;5088477;27;19927;-83
2022/07/24 07:59:31;;;;;;;;;;;;;;;32.61;39.05;100761.19;5126814;27;20006;-86
2022/07/24 08:01:56;;;;;;;;;;;;;;;32.97;37.91;100756.59;5131752;27;19915;-82
2022/07/24 08:04:24;;;;;;;;;;;;;;;32.93;38.69;100752.78;5106493;27;20403;-81
2022/07/24 08:06:49;;;;;;;;;;;;;;;33.09;37.74;100747.75;5108758;28;19920;-82
2022/07/24 08:09:15;;;;;;;;;;;;;;;33.00;37.57;100753.19;5126500;27;20390;-79
2022/07/24 08:11:40;;;;;;;;;;;;;;;32.87;37.63;100748.44;5104153;27;20383;-79
2022/07/24 08:14:06;;;;;;;;;;;;;;;33.07;37.83;100755.59;5103480;27;19928;-80
2022/07/24 08:16:33;;;;;;;;;;;;;;;33.38;37.42;100755.75;5134585;27;19923;-82
2022/07/24 08:19:04;;;;;;;;;;;;;;;33.62;36.42;100754.69;5132996;27;19980;-83
2022/07/24 08:21:32;;;;;;;;;;;;;;;33.94;35.68;100753.66;5115386;27;19922;-80
2022/07/24 08:23:59;;;;;;;;;;;;;;;34.27;35.10;100747.84;5095024;27;19998;-80
2022/07/24 08:26:24;;;;;;;;;;;;;;;34.11;34.11;100747.41;5133708;27;19912;-81
2022/07/24 08:28:50;;;;;;;;;;;;;;;34.67;33.18;100742.34;5126144;27;19926;-80
2022/07/24 08:31:15;;;;;;;;;;;;;;;34.97;33.33;100742.63;5115140;27;19980;-80
2022/07/24 08:33:41;;;;;;;;;;;;;;;35.63;31.55;100745.44;5117339;27;19964;-81
2022/07/24 08:36:07;;;;;;;;;;;;;;;35.83;31.34;100750.38;5104020;27;20403;-80
2022/07/24 08:38:32;;;;;;;;;;;;;;;35.59;30.69;100755.59;5103156;28;19920;-79
2022/07/24 08:40:58;;;;;;;;;;;;;;;35.71;31.30;100750.22;5127673;27;20271;-81
2022/07/24 08:43:23;;;;;;;;;;;;;;;35.70;32.52;100745.78;5113613;27;19970;-82
2022/07/24 08:45:51;;;;;;;;;;;;;;;36.23;30.62;100747.41;5097903;27;20003;-81
2022/07/24 08:48:16;;;;;;;;;;;;;;;35.54;30.88;100764.16;5101824;27;19923;-80
2022/07/24 08:50:42;;;;;;;;;;;;;;;36.09;29.62;100752.34;5114857;27;19911;-81
2022/07/24 08:53:07;;;;;;;;;;;;;;;35.72;32.16;100757.44;5105656;27;19953;-81
2022/07/24 08:55:33;;;;;;;;;;;;;;;36.40;31.09;100752.13;5122055;27;19911;-81
2022/07/24 08:57:59;;;;;;;;;;;;;;;37.16;29.95;100754.19;5108641;27;20435;-81
2022/07/24 09:00:27;;;;;;;;;;;;;;;37.73;28.64;100757.59;5121515;27;20359;-81
2022/07/24 09:02:52;;;;;;;;;;;;;;;37.42;27.93;100758.81;5113023;27;20031;-81
2022/07/24 09:05:18;;;;;;;;;;;;;;;37.94;28.90;100751.97;5110689;28;19967;-80
2022/07/24 09:07:43;;;;;;;;;;;;;;;37.09;27.92;100755.84;5114093;27;19915;-81
2022/07/24 09:10:09;;;;;;;;;;;;;;;37.80;29.19;100749.44;5099906;28;19920;-81
2022/07/24 09:12:36;;;;;;;;;;;;;;;38.29;29.50;100752.47;5123220;27;19911;-78
2022/07/24 09:15:02;;;;;;;;;;;;;;;38.60;29.97;100756.78;5114667;27;19919;-80
2022/07/24 09:17:27;;;;;;;;;;;;;;;38.46;30.99;100747.84;5110669;28;19920;-80
2022/07/24 09:19:55;;;;;;;;;;;;;;;38.57;30.61;100749.06;5093398;27;19915;-80
2022/07/24 09:22:36;;;;;;;;;;;;;;;38.98;30.44;100750.03;5132451;27;20390;-80
2022/07/24 09:25:05;;;;;;;;;;;;;;;38.60;31.12;100751.97;5132787;27;19934;-81
2022/07/24 09:27:30;;;;;;;;;;;;;;;38.75;30.47;100742.06;5132554;27;19985;-81
2022/07/24 09:29:55;;;;;;;;;;;;;;;39.29;30.16;100748.59;5097579;27;19915;-79
2022/07/24 09:32:22;;;;;;;;;;;;;;;39.70;29.33;100741.03;5114354;28;19991;-81
2022/07/24 09:34:50;;;;;;;;;;;;;;;40.87;27.30;100737.81;5110751;27;19911;-80
2022/07/24 09:37:15;;;;;;;;;;;;;;;41.19;26.24;100740.63;5098428;27;20332;-80
2022/07/24 09:39:41;;;;;;;;;;;;;;;42.01;25.25;100743.59;5132439;27;19919;-81
2022/07/24 09:42:06;;;;;;;;;;;;;;;43.09;24.04;100733.03;5112134;27;19955;-81
2022/07/24 09:44:32;;;;;;;;;;;;;;;43.90;23.16;100751.50;5118357;27;19947;-81
2022/07/24 09:47:02;;;;;;;;;;;;;;;43.11;23.48;100741.13;5077482;27;19911;-81
2022/07/24 09:49:28;;;;;;;;;;;;;;;42.60;24.65;100747.97;5114817;27;19911;-81
2022/07/24 09:52:05;;;;;;;;;;;;;;;44.02;23.15;100744.81;5132451;27;19911;-81
2022/07/24 09:54:31;;;;;;;;;;;;;;;42.38;25.63;100741.09;5122392;27;19911;-81
2022/07/24 09:57:20;;;;;;;;;;;;;;;41.75;26.67;100742.28;5102118;27;19954;-81
2022/07/24 10:00:01;;;;;;;;;;;;;;;41.97;26.87;100760.50;5126187;27;19999;-80
2022/07/24 10:02:27;;;;;;;;;;;;;;;41.58;27.30;100742.72;5118294;28;19911;-81
2022/07/24 10:04:54;;;;;;;;;;;;;;;40.69;28.62;100742.19;5113750;28;19911;-81
2022/07/24 10:07:22;;;;;;;;;;;;;;;40.33;29.46;100741.25;5113863;28;20378;-81
2022/07/24 10:09:50;;;;;;;;;;;;;;;40.48;28.98;100736.81;5115645;28;20395;-81
2022/07/24 10:12:19;;;;;;;;;;;;;;;40.35;29.35;100741.72;5096490;28;19956;-81
2022/07/24 10:14:48;;;;;;;;;;;;;;;40.56;29.37;100737.84;5121375;28;19915;-83
2022/07/24 10:17:16;;;;;;;;;;;;;;;41.05;28.28;100735.44;5118582;28;19915;-81
2022/07/24 10:19:45;;;;;;;;;;;;;;;40.37;29.37;100738.50;5103267;28;19922;-82
2022/07/24 10:22:11;;;;;;;;;;;;;;;40.28;29.92;100733.09;5126453;28;19937;-84
2022/07/24 10:24:56;;;;;;;;;;;;;;;39.80;30.05;100740.50;5108409;28;19919;-80
2022/07/24 10:27:28;;;;;;;;;;;;;;;39.74;30.50;100744.78;5126971;28;19934;-83
2022/07/24 10:29:55;;;;;;;;;;;;;;;39.43;31.28;100741.47;5108846;28;19958;-82
2022/07/24 10:32:21;;;;;;;;;;;;;;;38.89;32.02;100741.69;5105127;27;19930;-81
2022/07/24 10:35:05;;;;;;;;;;;;;;;39.92;30.43;100742.50;5123773;27;19923;-81
2022/07/24 10:37:31;;;;;;;;;;;;;;;38.56;32.33;100734.16;5123130;27;19915;-81
2022/07/24 10:40:09;;;;;;;;;;;;;;;39.80;30.67;100737.69;5126418;27;20018;-82
2022/07/24 10:42:54;;;;;;;;;;;;;;;38.22;33.17;100741.81;5130201;27;19966;-81
2022/07/24 10:45:22;;;;;;;;;;;;;;;37.99;33.28;100746.97;5134379;27;19922;-82
2022/07/24 10:47:49;;;;;;;;;;;;;;;37.18;35.00;100751.88;5111877;27;19919;-82
2022/07/24 10:50:19;;;;;;;;;;;;;;;38.06;33.90;100731.59;5097486;28;19916;-79
2022/07/24 10:52:46;;;;;;;;;;;;;;;36.86;35.32;100732.91;5130226;27;19926;-86
2022/07/24 10:55:30;;;;;;;;;;;;;;;36.02;36.76;100740.84;5112095;28;19919;-86
2022/07/24 10:58:05;;;;;;;;;;;;;;;35.75;37.40;100734.41;5124306;27;19964;-84
2022/07/24 11:00:34;;;;;;;;;;;;;;;35.67;36.92;100735.25;5115482;28;19908;-80
2022/07/24 11:02:59;;;;;;;;;;;;;;;35.47;37.99;100737.53;5115697;28;19923;-80
2022/07/24 11:05:29;;;;;;;;;;;;;;;34.66;39.33;100741.53;5114635;27;19924;-81
2022/07/24 11:08:29;;;;;;;;;;;;;;;33.18;43.18;100737.53;5131841;27;20010;-82
2022/07/24 11:10:56;;;;;;;;;;;;;;;32.73;45.28;100740.09;5072838;27;20291;-85
2022/07/24 11:13:32;;;;;;;;;;;;;;;32.14;47.48;100736.94;5093133;28;19923;-86
2022/07/24 11:16:21;;;;;;;;;;;;;;;32.14;47.73;100734.16;5112424;27;19928;-84
2022/07/24 11:18:46;;;;;;;;;;;;;;;32.41;46.84;100729.81;5128774;27;19939;-81
2022/07/24 11:21:13;;;;;;;;;;;;;;;32.51;46.30;100732.44;5130927;27;19915;-82
2022/07/24 11:23:38;;;;;;;;;;;;;;;32.22;47.12;100731.81;5099513;27;20313;-86
2022/07/24 11:26:23;;;;;;;;;;;;;;;32.22;47.55;100731.81;5128529;27;19916;-86
2022/07/24 11:29:06;;;;;;;;;;;;;;;31.62;47.56;100719.41;5125770;27;19919;-84
2022/07/24 11:31:37;;;;;;;;;;;;;;;31.98;48.68;100727.19;5108075;28;19938;-84
2022/07/24 11:34:04;;;;;;;;;;;;;;;31.73;49.79;100726.47;5111701;27;20300;-83
2022/07/24 11:36:30;;;;;;;;;;;;;;;31.82;49.33;100723.84;5119784;27;20038;-82
2022/07/24 11:38:55;;;;;;;;;;;;;;;31.78;49.68;100716.41;5109139;27;19915;-82
2022/07/24 11:41:24;;;;;;;;;;;;;;;31.53;50.29;100718.44;5094279;27;20370;-81
2022/07/24 11:44:03;;;;;;;;;;;;;;;31.18;51.17;100722.50;5129228;27;19922;-82
2022/07/24 11:46:56;;;;;;;;;;;;;;;30.99;51.83;100720.50;5115183;27;20399;-83
2022/07/24 11:49:22;;;;;;;;;;;;;;;31.50;50.57;100714.31;5106256;27;19919;-83
2022/07/24 11:51:48;;;;;;;;;;;;;;;31.47;51.13;100716.88;5120552;27;19923;-83
2022/07/24 11:54:19;;;;;;;;;;;;;;;31.34;50.78;100710.06;5106329;27;20012;-82
2022/07/24 11:56:47;;;;;;;;;;;;;;;31.21;50.97;100719.13;5097123;28;19983;-80
2022/07/24 11:59:31;;;;;;;;;;;;;;;31.04;51.33;100711.28;5113734;27;20010;-84
2022/07/24 12:02:02;;;;;;;;;;;;;;;31.15;50.93;100712.81;5134312;27;19988;-83
2022/07/24 12:04:30;;;;;;;;;;;;;;;31.08;51.09;100710.41;5109615;27;20314;-87
2022/07/24 12:06:55;;;;;;;;;;;;;;;30.69;52.16;100700.28;5114183;27;19915;-82
2022/07/24 12:09:27;;;;;;;;;;;;;;;30.86;51.77;100715.66;5118136;28;20282;-85
2022/07/24 12:11:58;;;;;;;;;;;;;;;30.70;51.67;100701.94;5129308;27;20671;-83
2022/07/24 12:14:23;;;;;;;;;;;;;;;30.54;50.32;100702.41;5116415;27;20290;-84
2022/07/24 12:16:55;;;;;;;;;;;;;;;30.50;49.67;100694.66;5119383;27;19916;-84
2022/07/24 12:19:22;;;;;;;;;;;;;;;30.73;49.31;100699.72;5110749;27;19915;-82
2022/07/24 12:21:47;;;;;;;;;;;;;;;30.27;48.59;100703.78;5115391;27;19998;-83
2022/07/24 12:24:14;;;;;;;;;;;;;;;30.25;49.50;100698.50;5115486;27;19942;-84
2022/07/24 12:26:52;;;;;;;;;;;;;;;30.63;48.96;100700.66;5104527;27;19919;-84
2022/07/24 12:29:19;;;;;;;;;;;;;;;30.80;48.71;100692.69;5118153;27;19939;-83
2022/07/24 12:31:46;;;;;;;;;;;;;;;30.35;49.09;100700.38;5111105;27;20356;-82
2022/07/24 12:34:14;;;;;;;;;;;;;;;30.11;49.28;100691.16;5112557;27;20367;-82
2022/07/24 12:36:40;;;;;;;;;;;;;;;30.15;49.92;100693.03;5132340;27;19922;-83
2022/07/24 12:39:05;;;;;;;;;;;;;;;30.28;49.32;100699.91;5130706;27;19923;-80
2022/07/24 12:41:33;;;;;;;;;;;;;;;30.22;49.84;100698.25;5084822;28;19938;-78